sensor_id;sensor_type;location;lat;lon;timestamp;P1;durP1;ratioP1;P2;durP2;ratioP2
30036;SDS011;36325;51.512;-0.382;2023-07-22T00:01:05;8.20;;;3.58;;
30036;SDS011;36325;51.512;-0.382;2023-07-22T00:03:32;5.38;;;3.35;;
30036;SDS011;36325;51.512;-0.382;2023-07-22T00:06:03;8.85;;;3.30;;
30036;SDS011;36325;51.512;-0.382;2023-07-22T00:08:32;7.72;;;2.80;;
30036;SDS011;36325;51.512;-0.382;2023-07-22T00:11:00;9.90;;;3.47;;
30036;SDS011;36325;51.512;-0.382;2023-07-22T00:13:28;8.95;;;3.60;;
30036;SDS011;36325;51.512;-0.382;2023-07-22T00:15:55;8.15;;;2.88;;
30036;SDS011;36325;51.512;-0.382;2023-07-22T00:18:23;6.25;;;3.05;;
30036;SDS011;36325;51.512;-0.382;2023-07-22T00:20:50;5.10;;;2.80;;
30036;SDS011;36325;51.512;-0.382;2023-07-22T00:23:17;8.68;;;3.50;;
30036;SDS011;36325;51.512;-0.382;2023-07-22T00:25:44;6.07;;;2.85;;
30036;SDS011;36325;51.512;-0.382;2023-07-22T00:28:12;7.50;;;3.10;;
30036;SDS011;36325;51.512;-0.382;2023-07-22T00:30:40;5.82;;;2.83;;
30036;SDS011;36325;51.512;-0.382;2023-07-22T00:33:08;6.22;;;2.38;;
30036;SDS011;36325;51.512;-0.382;2023-07-22T00:35:35;8.48;;;2.95;;
30036;SDS011;36325;51.512;-0.382;2023-07-22T00:38:03;6.93;;;3.13;;
30036;SDS011;36325;51.512;-0.382;2023-07-22T00:40:30;7.82;;;2.95;;
30036;SDS011;36325;51.512;-0.382;2023-07-22T00:42:58;10.55;;;3.50;;
30036;SDS011;36325;51.512;-0.382;2023-07-22T00:45:26;7.57;;;2.10;;
30036;SDS011;36325;51.512;-0.382;2023-07-22T00:47:53;12.30;;;4.32;;
30036;SDS011;36325;51.512;-0.382;2023-07-22T00:50:20;8.60;;;3.13;;
30036;SDS011;36325;51.512;-0.382;2023-07-22T00:52:50;8.18;;;2.95;;
30036;SDS011;36325;51.512;-0.382;2023-07-22T00:55:18;12.20;;;3.75;;
30036;SDS011;36325;51.512;-0.382;2023-07-22T00:57:45;5.22;;;2.47;;
30036;SDS011;36325;51.512;-0.382;2023-07-22T01:00:14;6.07;;;2.42;;
30036;SDS011;36325;51.512;-0.382;2023-07-22T01:02:42;5.72;;;2.35;;
30036;SDS011;36325;51.512;-0.382;2023-07-22T01:05:10;6.95;;;2.35;;
30036;SDS011;36325;51.512;-0.382;2023-07-22T01:07:39;4.50;;;2.25;;
30036;SDS011;36325;51.512;-0.382;2023-07-22T01:10:07;4.15;;;2.00;;
30036;SDS011;36325;51.512;-0.382;2023-07-22T01:12:35;5.55;;;1.90;;
30036;SDS011;36325;51.512;-0.382;2023-07-22T01:15:03;6.80;;;2.22;;
30036;SDS011;36325;51.512;-0.382;2023-07-22T01:17:35;8.07;;;2.50;;
30036;SDS011;36325;51.512;-0.382;2023-07-22T01:20:04;7.57;;;2.90;;
30036;SDS011;36325;51.512;-0.382;2023-07-22T01:22:33;10.68;;;2.92;;
30036;SDS011;36325;51.512;-0.382;2023-07-22T01:25:00;5.07;;;2.15;;
30036;SDS011;36325;51.512;-0.382;2023-07-22T01:27:28;10.43;;;2.90;;
30036;SDS011;36325;51.512;-0.382;2023-07-22T01:29:56;7.88;;;3.20;;
30036;SDS011;36325;51.512;-0.382;2023-07-22T01:32:23;15.25;;;2.53;;
30036;SDS011;36325;51.512;-0.382;2023-07-22T01:34:50;10.18;;;2.78;;
30036;SDS011;36325;51.512;-0.382;2023-07-22T01:37:17;7.35;;;2.42;;
30036;SDS011;36325;51.512;-0.382;2023-07-22T01:39:45;5.72;;;2.30;;
30036;SDS011;36325;51.512;-0.382;2023-07-22T01:42:12;7.47;;;2.47;;
30036;SDS011;36325;51.512;-0.382;2023-07-22T01:44:40;4.70;;;2.08;;
30036;SDS011;36325;51.512;-0.382;2023-07-22T01:47:07;6.63;;;2.40;;
30036;SDS011;36325;51.512;-0.382;2023-07-22T01:49:35;6.90;;;2.28;;
30036;SDS011;36325;51.512;-0.382;2023-07-22T01:52:02;3.72;;;2.20;;
30036;SDS011;36325;51.512;-0.382;2023-07-22T01:54:30;6.45;;;2.60;;
30036;SDS011;36325;51.512;-0.382;2023-07-22T01:56:57;7.20;;;2.53;;
30036;SDS011;36325;51.512;-0.382;2023-07-22T01:59:24;6.90;;;2.50;;
30036;SDS011;36325;51.512;-0.382;2023-07-22T02:01:52;7.07;;;2.63;;
30036;SDS011;36325;51.512;-0.382;2023-07-22T02:04:20;10.70;;;2.83;;
30036;SDS011;36325;51.512;-0.382;2023-07-22T02:06:47;16.10;;;3.20;;
30036;SDS011;36325;51.512;-0.382;2023-07-22T02:09:14;12.48;;;2.85;;
30036;SDS011;36325;51.512;-0.382;2023-07-22T02:11:42;8.75;;;2.42;;
30036;SDS011;36325;51.512;-0.382;2023-07-22T02:14:09;7.97;;;2.55;;
30036;SDS011;36325;51.512;-0.382;2023-07-22T02:16:36;6.93;;;3.22;;
30036;SDS011;36325;51.512;-0.382;2023-07-22T02:19:04;6.50;;;2.90;;
30036;SDS011;36325;51.512;-0.382;2023-07-22T02:21:39;6.15;;;2.00;;
30036;SDS011;36325;51.512;-0.382;2023-07-22T02:24:07;9.60;;;2.78;;
30036;SDS011;36325;51.512;-0.382;2023-07-22T02:26:35;4.35;;;2.17;;
30036;SDS011;36325;51.512;-0.382;2023-07-22T02:29:02;4.95;;;2.40;;
30036;SDS011;36325;51.512;-0.382;2023-07-22T02:31:30;4.32;;;2.03;;
30036;SDS011;36325;51.512;-0.382;2023-07-22T02:33:57;5.88;;;2.60;;
30036;SDS011;36325;51.512;-0.382;2023-07-22T02:36:24;10.02;;;2.92;;
30036;SDS011;36325;51.512;-0.382;2023-07-22T02:38:52;6.40;;;2.47;;
30036;SDS011;36325;51.512;-0.382;2023-07-22T02:41:19;5.68;;;2.47;;
30036;SDS011;36325;51.512;-0.382;2023-07-22T02:43:48;7.03;;;2.58;;
30036;SDS011;36325;51.512;-0.382;2023-07-22T02:46:15;6.75;;;2.85;;
30036;SDS011;36325;51.512;-0.382;2023-07-22T02:48:42;4.80;;;2.42;;
30036;SDS011;36325;51.512;-0.382;2023-07-22T02:51:10;9.18;;;2.10;;
30036;SDS011;36325;51.512;-0.382;2023-07-22T02:53:37;7.35;;;2.53;;
30036;SDS011;36325;51.512;-0.382;2023-07-22T02:56:04;4.40;;;2.17;;
30036;SDS011;36325;51.512;-0.382;2023-07-22T02:58:34;5.15;;;2.30;;
30036;SDS011;36325;51.512;-0.382;2023-07-22T03:01:03;6.95;;;2.47;;
30036;SDS011;36325;51.512;-0.382;2023-07-22T03:03:31;5.30;;;2.30;;
30036;SDS011;36325;51.512;-0.382;2023-07-22T03:06:00;5.30;;;2.55;;
30036;SDS011;36325;51.512;-0.382;2023-07-22T03:08:28;5.97;;;2.33;;
30036;SDS011;36325;51.512;-0.382;2023-07-22T03:10:55;2.97;;;2.05;;
30036;SDS011;36325;51.512;-0.382;2023-07-22T03:13:22;5.50;;;2.10;;
30036;SDS011;36325;51.512;-0.382;2023-07-22T03:15:50;8.75;;;2.42;;
30036;SDS011;36325;51.512;-0.382;2023-07-22T03:18:17;5.70;;;2.35;;
30036;SDS011;36325;51.512;-0.382;2023-07-22T03:20:44;7.93;;;2.30;;
30036;SDS011;36325;51.512;-0.382;2023-07-22T03:23:11;6.03;;;2.33;;
30036;SDS011;36325;51.512;-0.382;2023-07-22T03:25:39;10.98;;;2.80;;
30036;SDS011;36325;51.512;-0.382;2023-07-22T03:28:07;5.13;;;2.53;;
30036;SDS011;36325;51.512;-0.382;2023-07-22T03:30:34;5.57;;;2.50;;
30036;SDS011;36325;51.512;-0.382;2023-07-22T03:33:02;5.15;;;2.20;;
30036;SDS011;36325;51.512;-0.382;2023-07-22T03:35:29;4.15;;;2.00;;
30036;SDS011;36325;51.512;-0.382;2023-07-22T03:37:56;5.63;;;2.00;;
30036;SDS011;36325;51.512;-0.382;2023-07-22T03:40:24;5.72;;;2.28;;
30036;SDS011;36325;51.512;-0.382;2023-07-22T03:42:56;9.77;;;2.25;;
30036;SDS011;36325;51.512;-0.382;2023-07-22T03:45:24;3.92;;;2.25;;
30036;SDS011;36325;51.512;-0.382;2023-07-22T03:47:58;7.35;;;2.33;;
30036;SDS011;36325;51.512;-0.382;2023-07-22T03:50:27;5.03;;;2.22;;
30036;SDS011;36325;51.512;-0.382;2023-07-22T03:52:55;4.80;;;1.92;;
30036;SDS011;36325;51.512;-0.382;2023-07-22T03:55:22;4.38;;;1.90;;
30036;SDS011;36325;51.512;-0.382;2023-07-22T03:57:49;10.02;;;2.00;;
30036;SDS011;36325;51.512;-0.382;2023-07-22T04:00:17;4.78;;;2.10;;
30036;SDS011;36325;51.512;-0.382;2023-07-22T04:02:45;6.57;;;2.00;;
30036;SDS011;36325;51.512;-0.382;2023-07-22T04:05:12;3.72;;;2.35;;
30036;SDS011;36325;51.512;-0.382;2023-07-22T04:07:39;4.03;;;1.98;;
30036;SDS011;36325;51.512;-0.382;2023-07-22T04:10:06;5.50;;;2.28;;
30036;SDS011;36325;51.512;-0.382;2023-07-22T04:12:34;5.65;;;2.25;;
30036;SDS011;36325;51.512;-0.382;2023-07-22T04:15:02;5.22;;;2.75;;
30036;SDS011;36325;51.512;-0.382;2023-07-22T04:17:29;4.65;;;2.08;;
30036;SDS011;36325;51.512;-0.382;2023-07-22T04:19:58;6.68;;;2.33;;
30036;SDS011;36325;51.512;-0.382;2023-07-22T04:22:25;11.38;;;2.65;;
30036;SDS011;36325;51.512;-0.382;2023-07-22T04:24:52;4.40;;;1.98;;
30036;SDS011;36325;51.512;-0.382;2023-07-22T04:27:19;4.50;;;2.50;;
30036;SDS011;36325;51.512;-0.382;2023-07-22T04:29:46;4.38;;;2.10;;
30036;SDS011;36325;51.512;-0.382;2023-07-22T04:32:14;3.42;;;2.28;;
30036;SDS011;36325;51.512;-0.382;2023-07-22T04:34:41;3.40;;;1.90;;
30036;SDS011;36325;51.512;-0.382;2023-07-22T04:37:08;3.67;;;1.92;;
30036;SDS011;36325;51.512;-0.382;2023-07-22T04:39:36;6.22;;;1.63;;
30036;SDS011;36325;51.512;-0.382;2023-07-22T04:42:03;5.80;;;1.98;;
30036;SDS011;36325;51.512;-0.382;2023-07-22T04:44:31;5.38;;;1.70;;
30036;SDS011;36325;51.512;-0.382;2023-07-22T04:46:58;10.35;;;2.25;;
30036;SDS011;36325;51.512;-0.382;2023-07-22T04:49:26;4.53;;;2.40;;
30036;SDS011;36325;51.512;-0.382;2023-07-22T04:51:53;5.93;;;1.92;;
30036;SDS011;36325;51.512;-0.382;2023-07-22T04:54:20;8.43;;;1.58;;
30036;SDS011;36325;51.512;-0.382;2023-07-22T04:56:48;4.72;;;1.60;;
30036;SDS011;36325;51.512;-0.382;2023-07-22T04:59:15;3.58;;;1.80;;
30036;SDS011;36325;51.512;-0.382;2023-07-22T05:01:43;4.13;;;1.60;;
30036;SDS011;36325;51.512;-0.382;2023-07-22T05:04:10;5.18;;;2.05;;
30036;SDS011;36325;51.512;-0.382;2023-07-22T05:06:37;6.97;;;1.92;;
30036;SDS011;36325;51.512;-0.382;2023-07-22T05:09:05;3.03;;;1.75;;
30036;SDS011;36325;51.512;-0.382;2023-07-22T05:11:32;5.22;;;1.45;;
30036;SDS011;36325;51.512;-0.382;2023-07-22T05:13:59;4.82;;;1.95;;
30036;SDS011;36325;51.512;-0.382;2023-07-22T05:16:26;3.28;;;1.70;;
30036;SDS011;36325;51.512;-0.382;2023-07-22T05:18:53;6.18;;;2.03;;
30036;SDS011;36325;51.512;-0.382;2023-07-22T05:21:21;4.47;;;1.80;;
30036;SDS011;36325;51.512;-0.382;2023-07-22T05:23:48;3.35;;;1.60;;
30036;SDS011;36325;51.512;-0.382;2023-07-22T05:26:15;4.45;;;2.28;;
30036;SDS011;36325;51.512;-0.382;2023-07-22T05:28:42;5.63;;;1.80;;
30036;SDS011;36325;51.512;-0.382;2023-07-22T05:31:09;4.15;;;1.73;;
30036;SDS011;36325;51.512;-0.382;2023-07-22T05:33:37;4.32;;;1.88;;
30036;SDS011;36325;51.512;-0.382;2023-07-22T05:36:05;5.93;;;1.75;;
30036;SDS011;36325;51.512;-0.382;2023-07-22T05:38:33;2.83;;;1.58;;
30036;SDS011;36325;51.512;-0.382;2023-07-22T05:41:01;6.22;;;1.95;;
30036;SDS011;36325;51.512;-0.382;2023-07-22T05:43:28;5.63;;;2.10;;
30036;SDS011;36325;51.512;-0.382;2023-07-22T05:45:55;3.60;;;1.75;;
30036;SDS011;36325;51.512;-0.382;2023-07-22T05:48:23;3.90;;;1.80;;
30036;SDS011;36325;51.512;-0.382;2023-07-22T05:50:50;5.05;;;2.20;;
30036;SDS011;36325;51.512;-0.382;2023-07-22T05:53:17;3.17;;;1.65;;
30036;SDS011;36325;51.512;-0.382;2023-07-22T05:55:44;3.30;;;1.65;;
30036;SDS011;36325;51.512;-0.382;2023-07-22T05:58:15;3.22;;;1.60;;
30036;SDS011;36325;51.512;-0.382;2023-07-22T06:00:44;7.53;;;2.10;;
30036;SDS011;36325;51.512;-0.382;2023-07-22T06:03:13;4.53;;;2.33;;
30036;SDS011;36325;51.512;-0.382;2023-07-22T06:05:40;4.57;;;1.60;;
30036;SDS011;36325;51.512;-0.382;2023-07-22T06:08:07;9.13;;;2.22;;
30036;SDS011;36325;51.512;-0.382;2023-07-22T06:10:34;6.90;;;1.85;;
30036;SDS011;36325;51.512;-0.382;2023-07-22T06:13:04;5.90;;;2.28;;
30036;SDS011;36325;51.512;-0.382;2023-07-22T06:15:32;5.63;;;2.05;;
30036;SDS011;36325;51.512;-0.382;2023-07-22T06:18:00;6.43;;;1.95;;
30036;SDS011;36325;51.512;-0.382;2023-07-22T06:20:28;6.97;;;2.03;;
30036;SDS011;36325;51.512;-0.382;2023-07-22T06:22:55;2.92;;;1.80;;
30036;SDS011;36325;51.512;-0.382;2023-07-22T06:25:22;4.72;;;2.40;;
30036;SDS011;36325;51.512;-0.382;2023-07-22T06:27:49;6.53;;;2.15;;
30036;SDS011;36325;51.512;-0.382;2023-07-22T06:30:17;3.95;;;1.90;;
30036;SDS011;36325;51.512;-0.382;2023-07-22T06:32:44;5.90;;;2.00;;
30036;SDS011;36325;51.512;-0.382;2023-07-22T06:35:11;9.70;;;2.88;;
30036;SDS011;36325;51.512;-0.382;2023-07-22T06:37:38;5.65;;;1.98;;
30036;SDS011;36325;51.512;-0.382;2023-07-22T06:40:07;5.72;;;1.90;;
30036;SDS011;36325;51.512;-0.382;2023-07-22T06:42:34;8.48;;;1.75;;
30036;SDS011;36325;51.512;-0.382;2023-07-22T06:45:02;5.55;;;1.90;;
30036;SDS011;36325;51.512;-0.382;2023-07-22T06:47:30;4.47;;;2.53;;
30036;SDS011;36325;51.512;-0.382;2023-07-22T06:49:57;2.97;;;1.45;;
30036;SDS011;36325;51.512;-0.382;2023-07-22T06:52:24;4.97;;;2.03;;
30036;SDS011;36325;51.512;-0.382;2023-07-22T06:54:51;7.07;;;1.80;;
30036;SDS011;36325;51.512;-0.382;2023-07-22T06:57:18;4.68;;;2.00;;
30036;SDS011;36325;51.512;-0.382;2023-07-22T06:59:46;3.13;;;1.23;;
30036;SDS011;36325;51.512;-0.382;2023-07-22T07:02:13;3.10;;;1.83;;
30036;SDS011;36325;51.512;-0.382;2023-07-22T07:04:40;7.43;;;2.10;;
30036;SDS011;36325;51.512;-0.382;2023-07-22T07:07:07;4.43;;;1.88;;
30036;SDS011;36325;51.512;-0.382;2023-07-22T07:09:34;5.97;;;2.00;;
30036;SDS011;36325;51.512;-0.382;2023-07-22T07:12:02;5.03;;;1.50;;
30036;SDS011;36325;51.512;-0.382;2023-07-22T07:14:29;26.80;;;3.42;;
30036;SDS011;36325;51.512;-0.382;2023-07-22T07:16:57;6.28;;;1.60;;
30036;SDS011;36325;51.512;-0.382;2023-07-22T07:19:24;7.63;;;2.08;;
30036;SDS011;36325;51.512;-0.382;2023-07-22T07:21:52;4.55;;;1.88;;
30036;SDS011;36325;51.512;-0.382;2023-07-22T07:24:19;6.70;;;2.35;;
30036;SDS011;36325;51.512;-0.382;2023-07-22T07:26:47;8.02;;;2.25;;
30036;SDS011;36325;51.512;-0.382;2023-07-22T07:29:14;6.20;;;1.88;;
30036;SDS011;36325;51.512;-0.382;2023-07-22T07:31:58;15.52;;;2.40;;
30036;SDS011;36325;51.512;-0.382;2023-07-22T07:34:26;8.40;;;2.33;;
30036;SDS011;36325;51.512;-0.382;2023-07-22T07:36:53;9.32;;;2.45;;
30036;SDS011;36325;51.512;-0.382;2023-07-22T07:39:20;5.78;;;2.05;;
30036;SDS011;36325;51.512;-0.382;2023-07-22T07:41:53;3.60;;;1.63;;
30036;SDS011;36325;51.512;-0.382;2023-07-22T07:44:20;6.25;;;2.45;;
30036;SDS011;36325;51.512;-0.382;2023-07-22T07:46:47;3.92;;;1.70;;
30036;SDS011;36325;51.512;-0.382;2023-07-22T07:49:15;5.78;;;2.83;;
30036;SDS011;36325;51.512;-0.382;2023-07-22T07:51:42;8.15;;;2.60;;
30036;SDS011;36325;51.512;-0.382;2023-07-22T07:54:09;6.78;;;1.90;;
30036;SDS011;36325;51.512;-0.382;2023-07-22T07:56:37;9.23;;;2.10;;
30036;SDS011;36325;51.512;-0.382;2023-07-22T07:59:04;8.95;;;2.47;;
30036;SDS011;36325;51.512;-0.382;2023-07-22T08:01:32;5.47;;;2.83;;
30036;SDS011;36325;51.512;-0.382;2023-07-22T08:03:59;6.45;;;2.35;;
30036;SDS011;36325;51.512;-0.382;2023-07-22T08:06:26;6.18;;;2.28;;
30036;SDS011;36325;51.512;-0.382;2023-07-22T08:08:54;5.72;;;2.45;;
30036;SDS011;36325;51.512;-0.382;2023-07-22T08:11:21;5.57;;;2.42;;
30036;SDS011;36325;51.512;-0.382;2023-07-22T08:13:49;8.02;;;2.63;;
30036;SDS011;36325;51.512;-0.382;2023-07-22T08:16:18;7.57;;;2.20;;
30036;SDS011;36325;51.512;-0.382;2023-07-22T08:18:45;6.03;;;2.75;;
30036;SDS011;36325;51.512;-0.382;2023-07-22T08:21:13;10.40;;;3.47;;
30036;SDS011;36325;51.512;-0.382;2023-07-22T08:23:41;12.07;;;2.80;;
30036;SDS011;36325;51.512;-0.382;2023-07-22T08:26:12;3.47;;;2.00;;
30036;SDS011;36325;51.512;-0.382;2023-07-22T08:28:39;5.18;;;2.25;;
30036;SDS011;36325;51.512;-0.382;2023-07-22T08:31:07;9.40;;;3.47;;
30036;SDS011;36325;51.512;-0.382;2023-07-22T08:33:34;7.55;;;2.55;;
30036;SDS011;36325;51.512;-0.382;2023-07-22T08:36:07;4.35;;;1.90;;
30036;SDS011;36325;51.512;-0.382;2023-07-22T08:38:35;4.93;;;2.30;;
30036;SDS011;36325;51.512;-0.382;2023-07-22T08:41:03;8.95;;;2.08;;
30036;SDS011;36325;51.512;-0.382;2023-07-22T08:43:30;6.35;;;2.33;;
30036;SDS011;36325;51.512;-0.382;2023-07-22T08:46:01;7.15;;;2.40;;
30036;SDS011;36325;51.512;-0.382;2023-07-22T08:48:32;7.30;;;2.00;;
30036;SDS011;36325;51.512;-0.382;2023-07-22T08:51:07;5.13;;;1.90;;
30036;SDS011;36325;51.512;-0.382;2023-07-22T08:53:39;6.20;;;1.73;;
30036;SDS011;36325;51.512;-0.382;2023-07-22T08:56:07;5.60;;;2.25;;
30036;SDS011;36325;51.512;-0.382;2023-07-22T08:58:35;9.88;;;2.10;;
30036;SDS011;36325;51.512;-0.382;2023-07-22T09:01:02;4.75;;;2.35;;
30036;SDS011;36325;51.512;-0.382;2023-07-22T09:03:30;7.55;;;2.40;;
30036;SDS011;36325;51.512;-0.382;2023-07-22T09:05:58;7.40;;;2.30;;
30036;SDS011;36325;51.512;-0.382;2023-07-22T09:08:27;6.30;;;2.42;;
30036;SDS011;36325;51.512;-0.382;2023-07-22T09:10:54;5.82;;;1.98;;
30036;SDS011;36325;51.512;-0.382;2023-07-22T09:13:23;6.45;;;2.55;;
30036;SDS011;36325;51.512;-0.382;2023-07-22T09:15:53;7.85;;;2.88;;
30036;SDS011;36325;51.512;-0.382;2023-07-22T09:18:23;4.45;;;2.13;;
30036;SDS011;36325;51.512;-0.382;2023-07-22T09:20:50;9.30;;;2.78;;
30036;SDS011;36325;51.512;-0.382;2023-07-22T09:23:17;11.48;;;3.13;;
30036;SDS011;36325;51.512;-0.382;2023-07-22T09:25:44;8.95;;;2.85;;
30036;SDS011;36325;51.512;-0.382;2023-07-22T09:28:12;11.32;;;2.78;;
30036;SDS011;36325;51.512;-0.382;2023-07-22T09:30:39;5.88;;;2.83;;
30036;SDS011;36325;51.512;-0.382;2023-07-22T09:33:07;9.20;;;2.85;;
30036;SDS011;36325;51.512;-0.382;2023-07-22T09:35:49;8.10;;;4.85;;
30036;SDS011;36325;51.512;-0.382;2023-07-22T09:38:23;23.58;;;3.58;;
30036;SDS011;36325;51.512;-0.382;2023-07-22T09:40:52;5.70;;;2.45;;
30036;SDS011;36325;51.512;-0.382;2023-07-22T09:43:21;9.43;;;3.40;;
30036;SDS011;36325;51.512;-0.382;2023-07-22T09:45:49;14.93;;;4.03;;
30036;SDS011;36325;51.512;-0.382;2023-07-22T09:48:17;6.13;;;2.70;;
30036;SDS011;36325;51.512;-0.382;2023-07-22T09:50:44;7.85;;;3.70;;
30036;SDS011;36325;51.512;-0.382;2023-07-22T09:53:15;13.48;;;3.40;;
30036;SDS011;36325;51.512;-0.382;2023-07-22T09:55:43;7.20;;;3.40;;
30036;SDS011;36325;51.512;-0.382;2023-07-22T09:58:11;9.23;;;3.38;;
30036;SDS011;36325;51.512;-0.382;2023-07-22T10:00:42;5.82;;;2.63;;
30036;SDS011;36325;51.512;-0.382;2023-07-22T10:03:15;9.65;;;3.10;;
30036;SDS011;36325;51.512;-0.382;2023-07-22T10:05:45;7.78;;;3.10;;
30036;SDS011;36325;51.512;-0.382;2023-07-22T10:08:14;6.68;;;3.05;;
30036;SDS011;36325;51.512;-0.382;2023-07-22T10:10:46;4.90;;;3.00;;
30036;SDS011;36325;51.512;-0.382;2023-07-22T10:13:14;7.80;;;2.97;;
30036;SDS011;36325;51.512;-0.382;2023-07-22T10:15:42;8.05;;;3.25;;
30036;SDS011;36325;51.512;-0.382;2023-07-22T10:18:11;7.28;;;2.60;;
30036;SDS011;36325;51.512;-0.382;2023-07-22T10:20:39;6.72;;;2.40;;
30036;SDS011;36325;51.512;-0.382;2023-07-22T10:23:07;5.65;;;2.53;;
30036;SDS011;36325;51.512;-0.382;2023-07-22T10:25:36;11.43;;;3.78;;
30036;SDS011;36325;51.512;-0.382;2023-07-22T10:28:06;6.43;;;2.50;;
30036;SDS011;36325;51.512;-0.382;2023-07-22T10:30:33;9.23;;;3.15;;
30036;SDS011;36325;51.512;-0.382;2023-07-22T10:33:01;5.18;;;2.22;;
30036;SDS011;36325;51.512;-0.382;2023-07-22T10:38:12;4.97;;;2.75;;
30036;SDS011;36325;51.512;-0.382;2023-07-22T10:40:49;9.20;;;3.08;;
30036;SDS011;36325;51.512;-0.382;2023-07-22T10:43:18;11.43;;;2.97;;
30036;SDS011;36325;51.512;-0.382;2023-07-22T10:45:57;9.00;;;2.70;;
30036;SDS011;36325;51.512;-0.382;2023-07-22T10:48:26;5.90;;;2.15;;
30036;SDS011;36325;51.512;-0.382;2023-07-22T10:51:10;6.40;;;2.78;;
30036;SDS011;36325;51.512;-0.382;2023-07-22T10:53:46;10.15;;;3.88;;
30036;SDS011;36325;51.512;-0.382;2023-07-22T10:56:15;9.95;;;2.45;;
30036;SDS011;36325;51.512;-0.382;2023-07-22T11:01:22;9.82;;;2.58;;
30036;SDS011;36325;51.512;-0.382;2023-07-22T11:14:46;7.85;;;2.42;;
30036;SDS011;36325;51.512;-0.382;2023-07-22T11:17:21;7.57;;;2.58;;
30036;SDS011;36325;51.512;-0.382;2023-07-22T11:20:01;10.70;;;3.17;;
30036;SDS011;36325;51.512;-0.382;2023-07-22T11:22:29;8.13;;;2.83;;
30036;SDS011;36325;51.512;-0.382;2023-07-22T11:24:57;11.95;;;2.22;;
30036;SDS011;36325;51.512;-0.382;2023-07-22T11:27:27;8.77;;;2.55;;
30036;SDS011;36325;51.512;-0.382;2023-07-22T11:29:57;8.80;;;2.58;;
30036;SDS011;36325;51.512;-0.382;2023-07-22T11:32:25;10.88;;;3.60;;
30036;SDS011;36325;51.512;-0.382;2023-07-22T11:34:52;7.15;;;3.00;;
30036;SDS011;36325;51.512;-0.382;2023-07-22T11:37:20;5.75;;;3.22;;
30036;SDS011;36325;51.512;-0.382;2023-07-22T11:39:47;6.30;;;3.28;;
30036;SDS011;36325;51.512;-0.382;2023-07-22T11:42:15;8.65;;;3.00;;
30036;SDS011;36325;51.512;-0.382;2023-07-22T11:44:42;11.68;;;3.70;;
30036;SDS011;36325;51.512;-0.382;2023-07-22T11:47:10;11.45;;;4.28;;
30036;SDS011;36325;51.512;-0.382;2023-07-22T11:49:39;10.65;;;4.70;;
30036;SDS011;36325;51.512;-0.382;2023-07-22T11:52:14;11.35;;;4.25;;
30036;SDS011;36325;51.512;-0.382;2023-07-22T11:54:44;11.35;;;4.80;;
30036;SDS011;36325;51.512;-0.382;2023-07-22T11:57:14;13.13;;;5.13;;
30036;SDS011;36325;51.512;-0.382;2023-07-22T12:02:15;10.10;;;4.60;;
30036;SDS011;36325;51.512;-0.382;2023-07-22T12:04:44;13.02;;;5.60;;
30036;SDS011;36325;51.512;-0.382;2023-07-22T12:07:25;15.52;;;5.40;;
30036;SDS011;36325;51.512;-0.382;2023-07-22T12:09:55;12.52;;;4.25;;
30036;SDS011;36325;51.512;-0.382;2023-07-22T12:15:11;11.82;;;5.07;;
30036;SDS011;36325;51.512;-0.382;2023-07-22T12:17:50;19.55;;;6.45;;
30036;SDS011;36325;51.512;-0.382;2023-07-22T12:20:22;16.92;;;5.50;;
30036;SDS011;36325;51.512;-0.382;2023-07-22T12:22:54;16.90;;;7.15;;
30036;SDS011;36325;51.512;-0.382;2023-07-22T12:25:22;11.20;;;5.20;;
30036;SDS011;36325;51.512;-0.382;2023-07-22T12:27:50;13.27;;;5.90;;
30036;SDS011;36325;51.512;-0.382;2023-07-22T12:30:17;13.05;;;5.20;;
30036;SDS011;36325;51.512;-0.382;2023-07-22T12:32:47;13.05;;;5.00;;
30036;SDS011;36325;51.512;-0.382;2023-07-22T12:35:15;15.60;;;6.22;;
30036;SDS011;36325;51.512;-0.382;2023-07-22T12:37:42;17.70;;;6.47;;
30036;SDS011;36325;51.512;-0.382;2023-07-22T12:40:10;13.98;;;4.90;;
30036;SDS011;36325;51.512;-0.382;2023-07-22T12:42:39;11.73;;;5.65;;
30036;SDS011;36325;51.512;-0.382;2023-07-22T12:45:10;19.10;;;6.13;;
30036;SDS011;36325;51.512;-0.382;2023-07-22T12:47:39;16.75;;;6.05;;
30036;SDS011;36325;51.512;-0.382;2023-07-22T12:50:07;16.55;;;6.47;;
30036;SDS011;36325;51.512;-0.382;2023-07-22T12:52:35;14.55;;;5.63;;
30036;SDS011;36325;51.512;-0.382;2023-07-22T12:55:03;12.82;;;5.55;;
30036;SDS011;36325;51.512;-0.382;2023-07-22T12:57:30;12.23;;;5.57;;
30036;SDS011;36325;51.512;-0.382;2023-07-22T12:59:58;18.73;;;6.03;;
30036;SDS011;36325;51.512;-0.382;2023-07-22T13:02:26;16.17;;;5.80;;
30036;SDS011;36325;51.512;-0.382;2023-07-22T13:04:53;14.90;;;7.80;;
30036;SDS011;36325;51.512;-0.382;2023-07-22T13:07:20;11.45;;;5.60;;
30036;SDS011;36325;51.512;-0.382;2023-07-22T13:09:47;15.70;;;6.57;;
30036;SDS011;36325;51.512;-0.382;2023-07-22T13:12:16;11.38;;;6.10;;
30036;SDS011;36325;51.512;-0.382;2023-07-22T13:14:44;16.98;;;5.97;;
30036;SDS011;36325;51.512;-0.382;2023-07-22T13:17:12;13.75;;;6.10;;
30036;SDS011;36325;51.512;-0.382;2023-07-22T13:19:40;22.13;;;7.10;;
30036;SDS011;36325;51.512;-0.382;2023-07-22T13:22:07;22.58;;;6.85;;
30036;SDS011;36325;51.512;-0.382;2023-07-22T13:24:34;15.85;;;6.78;;
30036;SDS011;36325;51.512;-0.382;2023-07-22T13:27:02;17.20;;;6.03;;
30036;SDS011;36325;51.512;-0.382;2023-07-22T13:29:30;15.90;;;6.95;;
30036;SDS011;36325;51.512;-0.382;2023-07-22T13:31:57;21.00;;;7.10;;
30036;SDS011;36325;51.512;-0.382;2023-07-22T13:34:25;16.80;;;5.60;;
30036;SDS011;36325;51.512;-0.382;2023-07-22T13:36:52;15.05;;;6.00;;
30036;SDS011;36325;51.512;-0.382;2023-07-22T13:39:19;14.20;;;5.93;;
30036;SDS011;36325;51.512;-0.382;2023-07-22T13:41:47;11.98;;;4.95;;
30036;SDS011;36325;51.512;-0.382;2023-07-22T13:44:14;14.00;;;5.97;;
30036;SDS011;36325;51.512;-0.382;2023-07-22T13:46:41;14.60;;;5.80;;
30036;SDS011;36325;51.512;-0.382;2023-07-22T13:49:09;13.05;;;4.97;;
30036;SDS011;36325;51.512;-0.382;2023-07-22T13:51:36;13.80;;;5.68;;
30036;SDS011;36325;51.512;-0.382;2023-07-22T13:54:03;12.88;;;5.88;;
30036;SDS011;36325;51.512;-0.382;2023-07-22T13:56:30;16.50;;;6.00;;
30036;SDS011;36325;51.512;-0.382;2023-07-22T13:58:58;12.35;;;5.78;;
30036;SDS011;36325;51.512;-0.382;2023-07-22T14:01:27;12.63;;;6.20;;
30036;SDS011;36325;51.512;-0.382;2023-07-22T14:03:55;11.55;;;5.00;;
30036;SDS011;36325;51.512;-0.382;2023-07-22T14:06:22;15.13;;;5.93;;
30036;SDS011;36325;51.512;-0.382;2023-07-22T14:08:49;16.60;;;5.80;;
30036;SDS011;36325;51.512;-0.382;2023-07-22T14:11:17;11.35;;;4.85;;
30036;SDS011;36325;51.512;-0.382;2023-07-22T14:13:44;18.50;;;6.15;;
30036;SDS011;36325;51.512;-0.382;2023-07-22T14:16:14;11.63;;;5.75;;
30036;SDS011;36325;51.512;-0.382;2023-07-22T14:18:48;11.93;;;6.10;;
30036;SDS011;36325;51.512;-0.382;2023-07-22T14:21:16;18.50;;;6.68;;
30036;SDS011;36325;51.512;-0.382;2023-07-22T14:23:45;19.95;;;6.78;;
30036;SDS011;36325;51.512;-0.382;2023-07-22T14:26:12;19.90;;;6.97;;
30036;SDS011;36325;51.512;-0.382;2023-07-22T14:28:40;15.10;;;7.57;;
30036;SDS011;36325;51.512;-0.382;2023-07-22T14:31:07;16.35;;;6.72;;
30036;SDS011;36325;51.512;-0.382;2023-07-22T14:33:34;13.88;;;6.57;;
30036;SDS011;36325;51.512;-0.382;2023-07-22T14:36:01;13.00;;;5.93;;
30036;SDS011;36325;51.512;-0.382;2023-07-22T14:38:29;18.25;;;7.97;;
30036;SDS011;36325;51.512;-0.382;2023-07-22T14:40:56;17.50;;;7.10;;
30036;SDS011;36325;51.512;-0.382;2023-07-22T14:43:23;16.17;;;6.57;;
30036;SDS011;36325;51.512;-0.382;2023-07-22T14:45:50;18.77;;;6.70;;
30036;SDS011;36325;51.512;-0.382;2023-07-22T14:48:19;23.48;;;7.50;;
30036;SDS011;36325;51.512;-0.382;2023-07-22T14:50:46;20.27;;;7.65;;
30036;SDS011;36325;51.512;-0.382;2023-07-22T14:53:13;17.20;;;7.78;;
30036;SDS011;36325;51.512;-0.382;2023-07-22T14:55:40;20.15;;;8.60;;
30036;SDS011;36325;51.512;-0.382;2023-07-22T14:58:09;21.13;;;8.05;;